Time;durP1;ratioP1;P1;durP2;ratioP2;P2;SDS_P1;SDS_P2;PMS_P1;PMS_P2;Temp;Humidity;BMP_temperature;BMP_pressure;BME280_temperature;BME280_humidity;BME280_pressure;Samples;Min_cycle;Max_cycle;Signal;HPM_P1;HPM_P2
2023/12/28 00:02:53;;;;;;;7.82;4.95;;;;;;;7.53;77.41;100042.09;10338862;28;20068;-65
2023/12/28 00:07:57;;;;;;;6.80;5.10;;;;;;;7.38;77.47;100036.94;10342586;28;20060;-65
2023/12/28 00:13:00;;;;;;;7.95;5.50;;;;;;;7.53;77.53;100039.47;10328818;28;20200;-64
2023/12/28 00:18:01;;;;;;;7.85;4.85;;;;;;;7.50;77.81;100039.69;10353284;28;20060;-63
2023/12/28 00:23:05;;;;;;;5.70;5.05;;;;;;;7.27;77.81;100018.31;10338148;28;20065;-63
2023/12/28 00:28:06;;;;;;;6.43;4.95;;;;;;;7.43;77.78;100032.19;10337270;28;20151;-64
2023/12/28 00:33:08;;;;;;;6.82;5.10;;;;;;;7.42;77.29;100043.72;10337370;28;20196;-65
2023/12/28 00:38:10;;;;;;;9.43;5.20;;;;;;;7.40;77.73;100043.00;10336794;28;20112;-64
2023/12/28 00:43:12;;;;;;;8.35;5.30;;;;;;;7.38;77.29;100025.50;10338063;28;20121;-64
2023/12/28 00:48:13;;;;;;;6.07;4.75;;;;;;;7.30;77.18;100022.56;10338437;28;20109;-65
2023/12/28 00:53:15;;;;;;;7.93;5.38;;;;;;;7.46;76.73;100033.78;10335247;28;20044;-63
2023/12/28 00:58:16;;;;;;;7.57;4.50;;;;;;;7.42;76.35;100054.31;10337077;28;20053;-64
2023/12/28 01:03:19;;;;;;;5.93;5.00;;;;;;;7.37;76.03;100043.22;10333350;28;20107;-64
2023/12/28 01:08:21;;;;;;;7.00;5.10;;;;;;;7.23;74.86;100009.72;10341227;28;20148;-64
2023/12/28 01:13:22;;;;;;;7.45;4.78;;;;;;;7.35;75.27;100045.09;10340783;28;20137;-65
2023/12/28 01:18:27;;;;;;;5.55;4.22;;;;;;;7.39;74.47;100043.94;10319809;28;20146;-66
2023/12/28 01:23:29;;;;;;;4.97;4.25;;;;;;;7.52;73.39;100062.47;10344100;28;20046;-64
2023/12/28 01:28:31;;;;;;;5.03;4.40;;;;;;;7.46;72.73;100076.16;10342584;28;20061;-64
2023/12/28 01:33:35;;;;;;;5.03;4.28;;;;;;;7.64;71.88;100095.19;10341419;28;20053;-65
2023/12/28 01:38:36;;;;;;;6.00;3.83;;;;;;;7.72;70.91;100087.53;10342482;28;20049;-65
2023/12/28 01:43:39;;;;;;;5.22;4.07;;;;;;;7.85;70.66;100084.88;10350762;28;20058;-64
2023/12/28 01:48:42;;;;;;;4.93;3.38;;;;;;;7.99;69.79;100098.91;10335471;28;20053;-64
2023/12/28 01:53:47;;;;;;;4.78;3.85;;;;;;;8.01;68.31;100108.44;10305862;28;20054;-64
2023/12/28 01:58:50;;;;;;;5.05;3.78;;;;;;;8.02;67.37;100099.53;10339084;28;20089;-64
2023/12/28 02:03:54;;;;;;;4.20;3.30;;;;;;;8.20;68.43;100112.44;10339281;28;20084;-64
2023/12/28 02:08:56;;;;;;;3.93;3.37;;;;;;;8.24;66.39;100109.44;10339370;28;20133;-64
2023/12/28 02:13:57;;;;;;;5.72;3.55;;;;;;;8.26;66.71;100123.41;10353453;28;20057;-65
2023/12/28 02:19:07;;;;;;;3.97;3.58;;;;;;;8.23;66.90;100118.34;10343490;28;20326;-64
2023/12/28 02:24:08;;;;;;;4.57;3.28;;;;;;;8.27;66.54;100134.88;10337257;28;20052;-64
2023/12/28 02:29:10;;;;;;;4.93;3.65;;;;;;;8.32;66.23;100135.41;10338983;28;20057;-64
2023/12/28 02:34:19;;;;;;;5.93;4.05;;;;;;;8.31;66.16;100129.22;10343367;28;20061;-64
2023/12/28 02:39:22;;;;;;;4.45;3.40;;;;;;;8.34;66.22;100128.16;10338522;28;20042;-65
2023/12/28 02:44:24;;;;;;;5.60;3.90;;;;;;;8.47;66.07;100126.34;10337297;28;20958;-64
2023/12/28 02:49:26;;;;;;;5.57;3.70;;;;;;;8.43;65.95;100126.66;10351199;28;20468;-64
2023/12/28 02:54:28;;;;;;;3.75;3.13;;;;;;;8.51;66.16;100137.56;10339212;28;20257;-64
2023/12/28 02:59:30;;;;;;;4.32;3.13;;;;;;;8.54;66.02;100125.88;10331161;28;20058;-65
2023/12/28 03:04:31;;;;;;;7.40;3.83;;;;;;;8.54;66.29;100136.50;10341347;28;20719;-64
2023/12/28 03:09:34;;;;;;;3.40;3.10;;;;;;;8.51;66.10;100150.81;10341494;28;20046;-64
2023/12/28 03:14:35;;;;;;;5.50;3.20;;;;;;;8.50;65.71;100125.28;10339309;28;20042;-65
2023/12/28 03:19:37;;;;;;;4.57;3.40;;;;;;;8.51;66.39;100120.81;10334641;28;20299;-64
2023/12/28 03:24:39;;;;;;;4.00;3.60;;;;;;;8.45;67.07;100098.22;10339302;28;20057;-64
2023/12/28 03:29:42;;;;;;;8.75;4.30;;;;;;;8.46;67.52;100114.03;10323475;28;20050;-64
2023/12/28 03:34:44;;;;;;;4.45;3.42;;;;;;;8.52;68.25;100122.50;10338594;28;20105;-64
2023/12/28 03:39:46;;;;;;;3.45;3.00;;;;;;;8.49;68.35;100105.00;10338536;28;20045;-64
2023/12/28 03:44:47;;;;;;;3.85;3.28;;;;;;;8.54;68.05;100125.88;10339863;28;20418;-63
2023/12/28 03:49:49;;;;;;;4.97;3.05;;;;;;;8.58;68.03;100119.41;10338696;28;24101;-65
2023/12/28 03:54:50;;;;;;;5.10;3.92;;;;;;;8.58;68.26;100130.00;10338240;28;20735;-65
2023/12/28 03:59:55;;;;;;;5.78;3.08;;;;;;;8.58;68.84;100148.56;10338222;28;20057;-64
2023/12/28 04:04:58;;;;;;;5.20;3.15;;;;;;;8.58;70.08;100130.00;10333534;28;20065;-65
2023/12/28 04:10:01;;;;;;;3.40;3.10;;;;;;;8.66;70.30;100135.56;10332397;28;20123;-65
2023/12/28 04:15:03;;;;;;;3.97;3.08;;;;;;;8.64;70.66;100126.91;10336919;28;20616;-65
2023/12/28 04:20:06;;;;;;;4.57;3.50;;;;;;;8.62;71.89;100123.53;10338929;28;20609;-65
2023/12/28 04:25:07;;;;;;;3.88;3.17;;;;;;;8.64;72.94;100110.97;10341771;28;20132;-64
2023/12/28 04:30:12;;;;;;;4.22;3.20;;;;;;;8.58;74.12;100090.22;10337633;28;20177;-66
2023/12/28 04:35:14;;;;;;;;;;;;;;;8.71;74.52;100121.97;10336790;28;20057;-65
2023/12/28 04:40:17;;;;;;;3.80;3.20;;;;;;;8.72;75.03;100108.59;10337850;28;20015;-65
2023/12/28 04:45:18;;;;;;;3.55;3.25;;;;;;;8.69;75.38;100103.50;10338913;28;20145;-65
2023/12/28 04:50:20;;;;;;;3.22;2.65;;;;;;;8.77;75.61;100119.72;10346856;28;20700;-65
2023/12/28 04:55:21;;;;;;;3.95;3.10;;;;;;;8.77;75.72;100142.75;10348479;28;20073;-65
2023/12/28 05:00:23;;;;;;;4.35;3.13;;;;;;;8.72;76.43;100151.06;10348122;28;20049;-65
2023/12/28 05:05:24;;;;;;;4.30;2.95;;;;;;;8.78;77.33;100177.16;10346305;28;20363;-65
2023/12/28 05:10:27;;;;;;;3.03;2.45;;;;;;;8.81;77.69;100174.25;10345151;28;20066;-65
2023/12/28 05:15:29;;;;;;;3.58;3.10;;;;;;;8.98;77.89;100182.78;10345539;28;20057;-65
2023/12/28 05:20:31;;;;;;;4.55;2.80;;;;;;;9.06;78.31;100180.38;10340061;28;20061;-64
2023/12/28 05:25:32;;;;;;;4.03;2.55;;;;;;;9.07;79.89;100181.22;10345826;28;20081;-64
2023/12/28 05:30:34;;;;;;;3.10;2.42;;;;;;;9.05;80.00;100173.38;10339441;28;20108;-65
2023/12/28 05:35:38;;;;;;;2.93;2.23;;;;;;;9.16;80.92;100192.00;10345362;28;20707;-66
2023/12/28 05:40:39;;;;;;;4.75;2.92;;;;;;;9.05;81.91;100173.38;10323687;28;20143;-64
2023/12/28 05:45:41;;;;;;;3.03;2.40;;;;;;;9.23;82.68;100191.53;10344293;28;20111;-64
2023/12/28 05:50:42;;;;;;;3.88;2.60;;;;;;;9.25;83.90;100178.97;10338278;28;20058;-64
2023/12/28 05:55:43;;;;;;;5.40;2.47;;;;;;;9.17;85.74;100187.53;10342928;28;20049;-65
2023/12/28 06:00:48;;;;;;;4.30;2.47;;;;;;;9.25;86.72;100200.22;10341957;28;20057;-64
2023/12/28 06:05:50;;;;;;;3.15;2.35;;;;;;;9.26;87.46;100191.31;10340382;28;20042;-65
2023/12/28 06:10:51;;;;;;;2.88;2.67;;;;;;;9.26;88.16;100176.19;10340367;28;20053;-65
2023/12/28 06:15:53;;;;;;;3.03;2.38;;;;;;;9.23;88.45;100171.13;10338063;28;20057;-64
2023/12/28 06:20:55;;;;;;;2.83;2.25;;;;;;;9.25;89.22;100168.34;10346261;28;20151;-64
2023/12/28 06:25:56;;;;;;;3.40;2.33;;;;;;;9.26;89.20;100160.25;10334728;28;20132;-65
2023/12/28 06:31:00;;;;;;;3.22;2.17;;;;;;;9.19;89.82;100143.97;10339190;28;20088;-65
2023/12/28 06:36:06;;;;;;;3.05;2.67;;;;;;;9.27;90.28;100155.81;10341771;28;20433;-65
2023/12/28 06:41:12;;;;;;;2.83;2.17;;;;;;;9.26;90.88;100172.72;10338328;28;20120;-65
2023/12/28 06:46:14;;;;;;;2.45;2.17;;;;;;;9.24;91.14;100172.81;10334574;28;20049;-65
2023/12/28 06:51:17;;;;;;;3.20;2.58;;;;;;;9.30;90.81;100164.38;10303274;28;20128;-65
2023/12/28 06:56:19;;;;;;;2.77;2.10;;;;;;;9.32;91.05;100169.59;10297898;28;20065;-65
2023/12/28 07:01:21;;;;;;;2.05;1.83;;;;;;;9.32;91.63;100161.63;10313365;28;20800;-65
2023/12/28 07:06:24;;;;;;;1.67;1.48;;;;;;;9.11;92.50;100140.19;10336168;28;20057;-65
2023/12/28 07:11:28;;;;;;;2.17;1.40;;;;;;;9.30;92.45;100188.28;10337723;28;20053;-65
2023/12/28 07:16:29;;;;;;;4.68;1.75;;;;;;;9.34;92.97;100183.63;10339979;28;20147;-65
2023/12/28 07:21:31;;;;;;;1.63;1.23;;;;;;;9.37;92.75;100200.16;10339476;28;20458;-65
2023/12/28 07:26:33;;;;;;;2.03;1.70;;;;;;;9.42;93.05;100205.09;10332238;28;20119;-65
2023/12/28 07:31:34;;;;;;;1.45;1.35;;;;;;;9.41;93.45;100211.38;10340928;28;20107;-64
2023/12/28 07:36:36;;;;;;;3.10;1.77;;;;;;;9.39;94.27;100208.00;10337717;28;20084;-65
2023/12/28 07:41:38;;;;;;;2.05;1.58;;;;;;;9.44;93.87;100221.75;10326409;28;20046;-65
2023/12/28 07:46:40;;;;;;;2.20;1.52;;;;;;;9.47;94.25;100226.88;10339092;28;20056;-65
2023/12/28 07:51:41;;;;;;;3.10;1.60;;;;;;;9.46;94.18;100229.66;10318375;28;20058;-65
2023/12/28 07:56:43;;;;;;;2.15;1.70;;;;;;;9.50;94.30;100231.97;10341488;28;20058;-66
2023/12/28 08:01:45;;;;;;;1.60;1.40;;;;;;;9.57;94.36;100231.47;10325166;28;20053;-65
2023/12/28 08:06:46;;;;;;;2.33;1.70;;;;;;;9.55;94.41;100223.63;10318779;28;20054;-66
2023/12/28 08:11:48;;;;;;;2.92;1.52;;;;;;;9.47;94.68;100204.75;10343930;28;20061;-66
2023/12/28 08:16:50;;;;;;;1.92;1.60;;;;;;;9.53;94.51;100205.16;10343197;28;20688;-66
2023/12/28 08:21:51;;;;;;;5.15;2.03;;;;;;;9.53;94.64;100210.47;10345586;28;20084;-66
2023/12/28 08:26:53;;;;;;;4.45;2.10;;;;;;;9.55;94.73;100213.84;10343949;28;20057;-66
2023/12/28 08:31:55;;;;;;;2.78;1.50;;;;;;;9.55;94.55;100208.53;10346253;28;20116;-65
2023/12/28 08:36:57;;;;;;;2.33;1.70;;;;;;;9.58;94.44;100211.91;10346397;28;20068;-66
2023/12/28 08:41:59;;;;;;;3.42;2.58;;;;;;;9.63;94.39;100209.75;10337785;28;20053;-66
2023/12/28 08:47:02;;;;;;;3.90;2.13;;;;;;;9.63;94.57;100215.06;10347683;28;20515;-65
2023/12/28 08:52:03;;;;;;;4.68;2.03;;;;;;;9.65;94.63;100214.00;10347274;28;20053;-66
2023/12/28 08:57:05;;;;;;;3.00;1.83;;;;;;;9.70;94.67;100224.25;10344350;28;20054;-66
2023/12/28 09:02:11;;;;;;;4.78;2.25;;;;;;;9.72;94.60;100222.31;10337838;28;20083;-66
2023/12/28 09:07:16;;;;;;;3.08;1.98;;;;;;;9.72;94.17;100217.00;10339942;28;20519;-64
2023/12/28 09:12:18;;;;;;;2.60;1.85;;;;;;;9.73;94.72;100216.88;10339484;28;20053;-66
2023/12/28 09:17:23;;;;;;;4.88;2.65;;;;;;;9.80;94.52;100233.19;10344414;28;20053;-65
2023/12/28 09:22:25;;;;;;;3.55;2.22;;;;;;;9.79;94.55;100226.19;10328670;28;20049;-65
2023/12/28 09:27:27;;;;;;;3.78;2.33;;;;;;;9.89;94.10;100234.28;10340297;28;20080;-65
2023/12/28 09:32:29;;;;;;;4.10;1.98;;;;;;;9.97;93.44;100249.66;10344835;28;20064;-64
2023/12/28 09:37:31;;;;;;;4.03;2.15;;;;;;;9.93;92.89;100234.91;10345922;28;20049;-64
2023/12/28 09:42:43;;;;;;;2.45;1.95;;;;;;;10.07;92.38;100248.84;10347432;28;20127;-67
2023/12/28 09:47:46;;;;;;;3.15;2.00;;;;;;;10.13;91.58;100241.31;10338945;28;20052;-65
2023/12/28 09:52:47;;;;;;;4.43;2.35;;;;;;;10.23;90.92;100251.09;10341694;28;20147;-67
2023/12/28 09:57:50;;;;;;;6.85;3.35;;;;;;;10.22;90.17;100269.84;10346344;28;20056;-64
2023/12/28 10:02:52;;;;;;;2.78;2.00;;;;;;;10.25;89.91;100258.97;10344579;28;20050;-64
2023/12/28 10:07:55;;;;;;;7.25;5.35;;;;;;;10.36;91.03;100253.69;10331631;28;20058;-66
2023/12/28 10:12:57;;;;;;;24.40;22.43;;;;;;;10.45;88.27;100268.06;10340744;28;20049;-65
2023/12/28 10:17:59;;;;;;;3.33;1.90;;;;;;;10.49;87.14;100261.53;10343106;28;20053;-64
2023/12/28 10:23:02;;;;;;;2.50;2.20;;;;;;;10.68;85.69;100265.38;10344073;28;20695;-67
2023/12/28 10:28:07;;;;;;;3.92;3.30;;;;;;;10.76;85.00;100236.31;10335677;28;20053;-66
2023/12/28 10:33:09;;;;;;;3.42;1.73;;;;;;;11.02;82.69;100262.63;10343641;28;20050;-66
2023/12/28 10:38:15;;;;;;;3.75;1.98;;;;;;;11.22;81.41;100253.81;10344140;28;20061;-65
2023/12/28 10:43:21;;;;;;;4.13;1.35;;;;;;;11.53;79.38;100256.59;10341208;28;20081;-65
2023/12/28 10:48:34;;;;;;;2.85;1.73;;;;;;;11.70;77.75;100251.66;10338649;28;20065;-65
2023/12/28 10:53:48;;;;;;;4.07;1.70;;;;;;;12.19;75.13;100242.13;10339070;28;20115;-64
2023/12/28 10:59:13;;;;;;;3.47;1.77;;;;;;;12.38;73.15;100247.53;10338195;28;20089;-65
2023/12/28 11:04:31;;;;;;;3.25;2.08;;;;;;;12.78;71.44;100252.97;10329004;28;20049;-66
2023/12/28 11:09:33;;;;;;;2.63;1.58;;;;;;;12.76;69.58;100245.09;10339526;28;20159;-66
2023/12/28 11:14:39;;;;;;;3.50;1.40;;;;;;;13.33;68.83;100247.94;10336960;28;20076;-65
2023/12/28 11:19:41;;;;;;;2.55;1.52;;;;;;;13.99;65.01;100259.69;10334588;28;20065;-64
2023/12/28 11:24:42;;;;;;;3.17;1.70;;;;;;;14.55;61.85;100244.50;10338710;28;20100;-64
2023/12/28 11:29:45;;;;;;;2.28;1.50;;;;;;;15.20;59.94;100241.66;10340044;28;20724;-66
2023/12/28 11:34:56;;;;;;;4.50;2.65;;;;;;;14.50;60.84;100242.25;10345069;28;21141;-65
2023/12/28 11:40:01;;;;;;;2.75;1.92;;;;;;;14.12;62.15;100216.50;10332174;28;20065;-64
2023/12/28 11:45:06;;;;;;;3.50;1.75;;;;;;;14.19;63.15;100219.47;10355751;28;20576;-64
2023/12/28 11:50:07;;;;;;;4.40;3.20;;;;;;;14.66;61.02;100219.34;10335303;28;20067;-65
2023/12/28 11:55:09;;;;;;;3.40;2.10;;;;;;;15.33;58.60;100211.78;10337480;28;20057;-65
2023/12/28 12:00:10;;;;;;;3.95;1.63;;;;;;;16.13;56.33;100210.81;10343460;28;20085;-65
2023/12/28 12:05:14;;;;;;;2.33;1.35;;;;;;;16.77;53.37;100196.91;10336276;28;20666;-65
2023/12/28 12:10:16;;;;;;;4.18;3.85;;;;;;;17.25;50.77;100181.00;10337615;28;20100;-66
2023/12/28 12:15:18;;;;;;;3.22;1.55;;;;;;;17.66;49.13;100179.09;10335695;28;20700;-64
2023/12/28 12:20:20;;;;;;;2.20;1.60;;;;;;;17.95;48.25;100169.63;10332671;28;20041;-64
2023/12/28 12:25:22;;;;;;;3.25;2.40;;;;;;;18.56;47.91;100166.31;10322926;28;20121;-64
2023/12/28 12:30:23;;;;;;;1.80;1.23;;;;;;;18.59;45.89;100167.81;10331873;28;20049;-64
2023/12/28 12:35:25;;;;;;;2.38;1.42;;;;;;;19.00;45.17;100154.91;10337850;28;20054;-64
2023/12/28 12:40:27;;;;;;;1.80;1.30;;;;;;;19.58;44.82;100157.09;10336491;28;20101;-65
2023/12/28 12:45:29;;;;;;;4.88;1.85;;;;;;;19.59;43.72;100146.09;10334122;28;20168;-67
2023/12/28 12:50:33;;;;;;;3.42;1.50;;;;;;;19.68;44.26;100141.44;10300321;28;20054;-65
2023/12/28 12:55:36;;;;;;;4.43;3.25;;;;;;;19.60;43.92;100128.84;10284180;28;20411;-65
2023/12/28 13:00:39;;;;;;;9.35;8.52;;;;;;;20.23;41.83;100124.94;10312450;28;20555;-65
2023/12/28 13:05:43;;;;;;;16.42;14.85;;;;;;;20.91;40.62;100114.66;10330200;28;20058;-65
2023/12/28 13:10:45;;;;;;;2.88;1.30;;;;;;;20.80;40.85;100121.41;10337593;28;20044;-65
2023/12/28 13:15:47;;;;;;;2.03;1.40;;;;;;;21.12;40.64;100108.38;10339814;28;20089;-66
2023/12/28 13:20:49;;;;;;;3.88;1.40;;;;;;;21.57;40.00;100124.31;10339189;28;20527;-66
2023/12/28 13:25:51;;;;;;;3.53;1.52;;;;;;;20.40;41.62;100129.09;10338179;28;20062;-65
2023/12/28 13:30:55;;;;;;;2.60;1.67;;;;;;;17.78;47.88;100122.22;10338610;28;20106;-65
2023/12/28 13:35:57;;;;;;;5.88;1.55;;;;;;;17.37;50.17;100122.31;10341170;28;20139;-65
2023/12/28 13:40:59;;;;;;;3.33;2.00;;;;;;;17.63;49.02;100120.22;10341900;28;20076;-65
2023/12/28 13:46:00;;;;;;;31.60;28.33;;;;;;;16.87;51.63;100121.50;10340874;28;20088;-65
2023/12/28 13:51:02;;;;;;;9.30;7.80;;;;;;;15.79;54.76;100125.72;10338928;28;20161;-67
2023/12/28 13:56:04;;;;;;;3.17;2.20;;;;;;;15.32;57.15;100126.97;10345572;28;20068;-66
2023/12/28 14:01:05;;;;;;;2.88;2.28;;;;;;;14.71;59.98;100122.47;10342065;28;20121;-66
2023/12/28 14:06:08;;;;;;;1.77;1.50;;;;;;;14.23;61.96;100100.34;10337904;28;20075;-66
2023/12/28 14:11:10;;;;;;;2.58;2.05;;;;;;;13.72;65.05;100119.53;10338286;28;20649;-66
2023/12/28 14:16:11;;;;;;;3.25;1.27;;;;;;;13.41;66.81;100103.72;10338877;28;20050;-66
2023/12/28 14:21:14;;;;;;;4.90;1.50;;;;;;;13.44;67.86;100114.13;10337699;28;20081;-66
2023/12/28 14:26:16;;;;;;;2.17;1.70;;;;;;;12.93;69.47;100069.06;10338896;28;20037;-66
2023/12/28 14:31:17;;;;;;;2.13;1.08;;;;;;;13.24;69.95;100101.75;10338321;28;20057;-65
2023/12/28 14:36:31;;;;;;;1.75;0.77;;;;;;;12.83;71.99;100085.09;10342223;28;20556;-65
2023/12/28 14:41:37;;;;;;;1.48;0.70;;;;;;;12.72;73.56;100096.78;10337721;28;20951;-64
2023/12/28 14:46:43;;;;;;;8.07;7.22;;;;;;;12.70;74.60;100102.25;10339475;28;20052;-65
2023/12/28 14:51:44;;;;;;;1.42;0.95;;;;;;;12.47;76.81;100101.69;10319512;28;20066;-65
2023/12/28 14:56:46;;;;;;;7.82;7.05;;;;;;;12.33;78.91;100110.94;10348640;28;20145;-65
2023/12/28 15:01:56;;;;;;;1.27;1.15;;;;;;;12.29;80.28;100103.34;10325801;28;20156;-64
2023/12/28 15:06:58;;;;;;;2.72;1.00;;;;;;;12.38;79.79;100108.72;10339863;28;20049;-65
2023/12/28 15:12:00;;;;;;;3.08;2.22;;;;;;;12.12;82.00;100096.88;10337892;28;20131;-65
2023/12/28 15:17:02;;;;;;;2.03;1.33;;;;;;;12.05;82.96;100104.56;10344435;28;20136;-65
2023/12/28 15:22:09;;;;;;;1.88;1.40;;;;;;;11.94;84.47;100110.03;10339211;28;20191;-63
2023/12/28 15:27:13;;;;;;;3.33;2.45;;;;;;;11.95;85.29;100111.69;10315135;28;20298;-67
2023/12/28 15:32:15;;;;;;;2.38;1.45;;;;;;;11.81;85.74;100104.88;10338631;28;20389;-70
2023/12/28 15:37:16;;;;;;;3.03;1.80;;;;;;;11.93;84.90;100127.84;10332826;28;20716;-65
2023/12/28 15:42:18;;;;;;;2.38;1.42;;;;;;;11.87;85.47;100111.50;10335344;28;20065;-63
2023/12/28 15:47:20;;;;;;;2.58;1.60;;;;;;;11.77;85.40;100114.13;10342055;28;20065;-65
2023/12/28 15:52:21;;;;;;;2.60;2.00;;;;;;;11.67;86.23;100119.44;10332093;28;20148;-66
2023/12/28 15:57:23;;;;;;;3.20;1.70;;;;;;;11.47;86.11;100102.53;10335660;28;20060;-65
2023/12/28 16:02:25;;;;;;;1.95;1.60;;;;;;;11.44;86.55;100116.09;10342821;28;20131;-65
2023/12/28 16:07:26;;;;;;;2.08;1.85;;;;;;;11.44;86.21;100114.28;10341743;28;20061;-66
2023/12/28 16:12:28;;;;;;;2.03;1.83;;;;;;;11.43;85.11;100117.09;10339073;28;20042;-66
2023/12/28 16:17:30;;;;;;;2.10;1.70;;;;;;;11.39;84.87;100115.66;10339656;28;20648;-64
2023/12/28 16:22:32;;;;;;;3.40;2.08;;;;;;;11.35;84.56;100103.56;10345998;28;20054;-64
2023/12/28 16:27:33;;;;;;;2.45;2.08;;;;;;;11.25;83.91;100095.53;10329832;28;20053;-64
2023/12/28 16:32:37;;;;;;;2.77;2.43;;;;;;;11.25;83.60;100093.69;10333924;28;20053;-63
2023/12/28 16:37:38;;;;;;;4.03;2.15;;;;;;;11.11;83.34;100083.41;10335759;28;20057;-65
2023/12/28 16:42:40;;;;;;;2.80;2.13;;;;;;;11.06;83.77;100082.94;10342480;28;20049;-63
2023/12/28 16:47:42;;;;;;;3.97;2.30;;;;;;;11.10;83.98;100101.19;10354950;28;20054;-65
2023/12/28 16:52:44;;;;;;;3.33;2.70;;;;;;;11.02;84.31;100087.69;10333455;28;20114;-65
2023/12/28 16:57:47;;;;;;;3.08;2.42;;;;;;;10.97;84.46;100087.22;10347749;28;20074;-64
2023/12/28 17:02:49;;;;;;;3.75;3.38;;;;;;;10.97;84.10;100089.88;10341264;28;20058;-65
2023/12/28 17:07:51;;;;;;;3.25;2.95;;;;;;;10.86;84.47;100095.28;10348185;28;20518;-65
2023/12/28 17:12:52;;;;;;;3.88;3.58;;;;;;;10.98;84.16;100090.75;10343136;28;20180;-64
2023/12/28 17:17:55;;;;;;;3.67;2.30;;;;;;;10.98;83.40;100093.41;10340748;28;20308;-63
2023/12/28 17:23:08;;;;;;;2.85;2.05;;;;;;;10.92;83.29;100076.94;10344593;28;20989;-65
2023/12/28 17:28:18;;;;;;;2.63;2.42;;;;;;;10.85;83.57;100081.09;10343134;28;20607;-65
2023/12/28 17:33:21;;;;;;;5.63;2.17;;;;;;;10.75;84.56;100085.53;10337488;28;20050;-63
2023/12/28 17:38:25;;;;;;;4.27;2.40;;;;;;;10.61;85.66;100089.34;10345810;28;20061;-65
2023/12/28 17:43:39;;;;;;;3.33;2.55;;;;;;;10.69;86.10;100080.69;10344429;28;20289;-64
2023/12/28 17:48:44;;;;;;;5.47;2.80;;;;;;;10.67;86.53;100088.81;10341422;28;20420;-65
2023/12/28 17:53:48;;;;;;;4.10;2.92;;;;;;;10.57;87.52;100072.78;10314787;28;20069;-66
2023/12/28 17:58:51;;;;;;;3.65;3.20;;;;;;;10.42;88.38;100074.91;10345661;28;20045;-63
2023/12/28 18:03:53;;;;;;;4.10;3.00;;;;;;;10.31;89.37;100079.38;10333623;28;20068;-64
2023/12/28 18:08:55;;;;;;;4.38;3.08;;;;;;;10.23;89.66;100082.69;10356385;28;20099;-64
2023/12/28 18:13:57;;;;;;;4.65;2.92;;;;;;;10.11;90.52;100081.84;10342606;28;20231;-63
2023/12/28 18:19:00;;;;;;;3.78;2.53;;;;;;;10.11;89.87;100073.88;10338391;28;20045;-63
2023/12/28 18:24:02;;;;;;;5.13;3.05;;;;;;;10.18;89.50;100068.91;10350508;28;20045;-64
2023/12/28 18:29:06;;;;;;;4.32;2.70;;;;;;;10.10;89.56;100069.53;10346019;28;20104;-64
2023/12/28 18:34:08;;;;;;;5.95;3.13;;;;;;;10.10;89.63;100072.19;10340892;28;20096;-65
2023/12/28 18:39:15;;;;;;;2.72;2.50;;;;;;;10.07;89.66;100080.41;10333774;28;20080;-64
2023/12/28 18:44:16;;;;;;;4.07;3.00;;;;;;;10.03;89.89;100069.19;10339958;28;20053;-63
2023/12/28 18:49:18;;;;;;;4.65;3.10;;;;;;;10.05;89.99;100077.88;10339776;28;20097;-64
2023/12/28 18:54:20;;;;;;;3.35;2.75;;;;;;;9.98;90.12;100082.00;10332727;28;20471;-64
2023/12/28 18:59:23;;;;;;;3.90;3.00;;;;;;;10.01;90.12;100080.91;10338608;28;20056;-64
2023/12/28 19:04:27;;;;;;;2.97;2.67;;;;;;;9.97;90.37;100080.31;10335536;28;20186;-64
2023/12/28 19:09:30;;;;;;;4.10;3.20;;;;;;;10.02;90.35;100085.28;10347910;28;20432;-64
2023/12/28 19:14:31;;;;;;;3.90;3.15;;;;;;;10.01;90.28;100070.28;10338971;28;20057;-64
2023/12/28 19:19:33;;;;;;;3.50;3.05;;;;;;;9.99;90.98;100074.88;10335457;28;20065;-64
2023/12/28 19:24:35;;;;;;;5.72;3.45;;;;;;;9.89;91.77;100072.09;10347533;28;20497;-64
2023/12/28 19:29:36;;;;;;;3.55;2.80;;;;;;;9.81;92.13;100070.06;10341639;28;20060;-63
2023/12/28 19:34:38;;;;;;;4.68;3.58;;;;;;;9.97;91.76;100071.47;10339346;28;20519;-63
2023/12/28 19:39:42;;;;;;;4.53;3.15;;;;;;;9.97;92.77;100074.16;10339439;28;20113;-65
2023/12/28 19:44:44;;;;;;;3.70;2.93;;;;;;;10.11;91.76;100071.22;10337722;28;20065;-63
2023/12/28 19:49:45;;;;;;;4.97;3.20;;;;;;;10.07;91.28;100070.63;10338126;28;20368;-63
2023/12/28 19:54:48;;;;;;;4.43;3.17;;;;;;;10.06;91.36;100084.06;10335653;28;20431;-64
2023/12/28 19:59:51;;;;;;;4.35;3.17;;;;;;;10.15;91.38;100088.63;10344075;28;20136;-63
2023/12/28 20:04:55;;;;;;;3.45;3.15;;;;;;;10.22;90.65;100088.97;10336746;28;20064;-65
2023/12/28 20:09:59;;;;;;;3.28;2.88;;;;;;;10.12;91.32;100088.00;10337798;28;20050;-64
2023/12/28 20:15:00;;;;;;;3.47;3.10;;;;;;;10.11;91.72;100087.19;10341129;28;20060;-65
2023/12/28 20:20:03;;;;;;;3.20;2.85;;;;;;;10.23;91.29;100083.50;10345256;28;20637;-64
2023/12/28 20:25:05;;;;;;;3.83;2.60;;;;;;;10.21;91.87;100066.84;10341835;28;20140;-64
2023/12/28 20:30:10;;;;;;;4.22;3.10;;;;;;;10.36;91.52;100074.56;10341286;28;20108;-64
2023/12/28 20:35:12;;;;;;;3.13;2.83;;;;;;;10.35;91.27;100073.72;10343964;28;20056;-65
2023/12/28 20:40:13;;;;;;;3.50;2.38;;;;;;;10.38;91.62;100069.97;10343040;28;20705;-64
2023/12/28 20:45:16;;;;;;;4.25;2.13;;;;;;;10.38;91.45;100068.13;10347699;28;20457;-64
2023/12/28 20:50:17;;;;;;;2.53;1.88;;;;;;;10.43;91.72;100070.41;10334997;28;20153;-64
2023/12/28 20:55:21;;;;;;;2.85;1.80;;;;;;;10.36;92.85;100079.91;10333647;28;20115;-66
2023/12/28 21:00:23;;;;;;;1.95;1.75;;;;;;;10.32;92.90;100054.47;10334867;28;20049;-64
2023/12/28 21:05:24;;;;;;;2.03;1.70;;;;;;;10.36;93.16;100062.09;10336791;28;20089;-64
2023/12/28 21:10:28;;;;;;;2.90;1.67;;;;;;;10.26;93.95;100069.13;10322280;28;20609;-64
2023/12/28 21:15:30;;;;;;;2.58;2.13;;;;;;;10.19;94.48;100051.97;10334256;28;20136;-64
2023/12/28 21:20:31;;;;;;;1.92;1.73;;;;;;;10.21;94.58;100061.53;10331786;28;20077;-65
2023/12/28 21:25:33;;;;;;;2.55;2.35;;;;;;;10.24;94.97;100063.94;10342281;28;20048;-64
2023/12/28 21:30:36;;;;;;;3.40;2.97;;;;;;;10.22;95.86;100060.56;10342703;28;20050;-64
2023/12/28 21:35:38;;;;;;;2.95;2.67;;;;;;;10.32;96.05;100051.81;10344353;28;20100;-64
2023/12/28 21:40:41;;;;;;;3.05;2.72;;;;;;;10.30;96.71;100053.75;10344597;28;20044;-63
2023/12/28 21:45:45;;;;;;;4.63;3.28;;;;;;;10.33;96.94;100042.84;10338736;28;20112;-64
2023/12/28 21:50:47;;;;;;;;;;;;;;;10.28;97.86;100056.53;10339463;28;20061;-63
2023/12/28 21:55:48;;;;;;;3.35;3.05;;;;;;;10.33;97.80;100045.50;10342176;28;20047;-63
2023/12/28 22:00:50;;;;;;;2.80;2.53;;;;;;;10.30;98.41;100045.75;10349437;28;20108;-63
2023/12/28 22:05:52;;;;;;;3.53;2.25;;;;;;;10.31;98.62;100042.13;10348395;28;20056;-63
2023/12/28 22:10:54;;;;;;;3.97;2.10;;;;;;;10.24;99.09;100047.97;10344002;28;20050;-64
2023/12/28 22:15:56;;;;;;;2.15;1.85;;;;;;;10.26;99.14;100040.69;10339182;28;20052;-64
2023/12/28 22:20:58;;;;;;;3.47;2.05;;;;;;;10.31;98.88;100042.13;10341251;28;20631;-65
2023/12/28 22:26:03;;;;;;;3.20;2.03;;;;;;;10.30;98.85;100056.41;10344355;28;20559;-64
2023/12/28 22:31:04;;;;;;;2.08;1.88;;;;;;;10.32;98.28;100042.00;10345267;28;20136;-64
2023/12/28 22:36:06;;;;;;;1.80;1.70;;;;;;;10.39;97.65;100048.56;10349453;28;20068;-63
2023/12/28 22:41:08;;;;;;;2.20;2.00;;;;;;;10.34;97.90;100045.41;10335019;28;20065;-63
2023/12/28 22:46:15;;;;;;;2.42;2.13;;;;;;;10.41;97.39;100046.59;10335765;28;20048;-64
2023/12/28 22:51:17;;;;;;;2.15;1.73;;;;;;;10.47;97.00;100042.59;10348404;28;20205;-63
2023/12/28 22:56:19;;;;;;;1.65;1.30;;;;;;;10.49;96.66;100047.78;10341416;28;20083;-64
2023/12/28 23:01:21;;;;;;;2.20;1.48;;;;;;;10.59;96.16;100043.38;10333674;28;20050;-63
2023/12/28 23:06:24;;;;;;;3.08;1.85;;;;;;;10.54;95.40;100038.44;10333431;28;20049;-62
2023/12/28 23:11:25;;;;;;;1.70;1.40;;;;;;;10.57;94.83;100056.81;10346251;28;20080;-64
2023/12/28 23:16:27;;;;;;;1.75;1.60;;;;;;;10.48;95.46;100044.28;10316299;28;20068;-64
2023/12/28 23:21:28;;;;;;;1.92;1.65;;;;;;;10.45;94.98;100041.88;10341009;28;20751;-64